MMMZ 090643Z 00000KT 10SM SKC 16/13 A2994 RMK HZY= 090643

MMMZ 090541Z 00000KT 10SM SKC 17/16 A2994 RMK SLP134 52007 952 HZY= 090541

MMMZ 090440Z 00000KT 10SM SKC 18/14 A2994 RMK HZY= 090440

MMMZ 090340Z 00000KT 10SM SKC 20/15 A2993 RMK HZY= 090341

MMMZ 090242Z 33005KT 11SM SKC 23/17 A2992 RMK SLP132 52017 910 HZY= 090243

MMMZ 090143Z 00000KT 12SM SKC 23/17 A2990= 090143

MMMZ 090042Z 00000KT 14SM SKC 25/18 A2989 RMK ISOL CI= 090042

MMMZ 082345Z 28007KT 15SM SKC 27/19 A2987 RMK SLP111 57007 956 ISOL CI= 082345

MMMZ 082242Z 29008KT 15SM SKC 29/18 A2987= 082242

MMMZ 082142Z 28005KT 15SM SKC 30/17 A2988= 082143

MMMZ 082043Z 26004KT 15SM SKC 32/17 A2989 RMK SLP122 57027 910 ISOL CI= 082044

MMMZ 081942Z 17002KT 15SM FEW250 31/18 A2991 RMK 8/001= 081942

MMMZ 081841Z 26002KT 15SM SCT250 30/15 A2995 RMK 8/001= 081842

MMMZ 081744Z 00000KT 15SM SCT250 29/15 A2997 RMK SLP140 52003 900 8/001= 081745

MMMZ 081649Z 00000KT 15SM SCT250 27/16 A2999 RMK 8/002= 081650

MMMZ 081542Z 00000KT 15SM SCT250 22/17 A2998 RMK 8/002= 081543

MMMZ 081445Z 00000KT 15SM SCT240 19/16 A2997 RMK SLP149 52017 916 8/002= 081445

MMMZ 081343Z 07002KT 10SM BKN240 15/14 A2995 RMK 8/002 HZY RTS= 081343

MMMZ 081242Z 06003KT 10SM FEW240 15/14 A2993 RMK 8/002 HZY= 081243

MMMZ 081140Z 00000KT 10SM SKC 16/15 A2992 RMK SLP128 57003 902 HZY ISOL CI= 081141

MMMZ 081040Z 06005KT 10SM SKC 16/15 A2992 RMK HZY= 081041

MMMZ 080941Z 06004KT 10SM SKC 16/15 A2993 RMK HZY ISOL CI= 080942

MMMZ 080840Z 06004KT 10SM SKC 15/14 A2993 RMK SLP135 57007 909 HZY= 080841

MMMZ 080741Z 00000KT 10SM SKC 16/14 A2994 RMK HZY= 080741

MMMZ 080640Z 00000KT 10SM FEW240 16/15 A2995 RMK 8/002 HZY= 080641

MMMZ 080540Z 00000KT 10SM FEW240 17/14 A2995 RMK SLP136 52007 962 8/002 HZY= 080541

MMMZ 080442Z 00000KT 10SM FEW240 18/14 A2995 RMK 8/002 HZY= 080442

MMMZ 080344Z 34004KT 10SM FEW240 21/15 A2994 RMK 8/002= 080345

MMMZ 080242Z 03006KT 10SM FEW240 21/15 A2993 RMK SLP122 52013 977 8/004= 080242

MMMZ 080142Z 00000KT 10SM FEW240 21/17 A2992 RMK 8/004= 080142

MMMZ 080042Z 32004KT 12SM SCT250 23/17 A2990 RMK 8/004= 080042

MMMZ 072342Z 30005KT 15SM SCT250 26/18 A2989 RMK SLP117 57003 964 8/004= 072343

MMMZ 072242Z 29008KT 15SM FEW250 29/18 A2988 RMK 8/004= 072243

MMMZ 072143Z 28007KT 15SM FEW250 30/18 A2989 RMK 8/001= 072145

MMMZ 072042Z 29007KT 15SM SCT250 29/18 A2990 RMK SLP111 57027 974 8/004= 072043

MMMZ 071952Z 24003KT 15SM SCT250 30/17 A2993 RMK 8/004= 071953

MMMZ 071840Z 20003KT 15SM SCT250 30/16 A2995 RMK 8/004= 071840

MMMZ 071743Z 00000KT 14SM SCT250 29/16 A2997 RMK SLP146 52007 960 8/002= 071744

MMMZ 071641Z 00000KT 14SM BKN250 26/17 A2998 RMK 8/002= 071642

MMMZ 071542Z 00000KT 12SM BKN250 23/19 A2998 RMK 8/002= 071542

MMMZ 071447Z 06005KT 12SM BKN250 19/18 A2996 RMK SLP133 52013 979 8/002= 071448

MMMZ 071340Z 04003KT 10SM BKN240 17/16 A2995 RMK 8/002 HZY= 071341

MMMZ 071242Z 00000KT 6SM SCT240 17/17 A2993 RMK 8/002 HZY= 071242

MMMZ 071141Z 00000KT 3SM BR SKC 17/17 A2992 RMK SLP126 57007 962= 071142

MMMZ 071042Z 00000KT 3SM BR SKC 17/17 A2992= 071043

MMMZ 070941Z 00000KT 3SM BR SKC 17/17 A2993= 070942

MMMZ 070843Z 00000KT 3SM BR SKC 17/17 A2994 RMK SLP126 57013 962= 070844

MMMZ 070741Z 00000KT 1SM BR SKC 17/17 A2995= 070741

MMMZ 070642Z 00000KT 1SM BR SKC 18/17 A2996= 070643

MMMZ 070540Z 00000KT 10SM SKC 18/18 A2998 RMK SLP148 52003 901 HZY= 070545